sensor_id;sensor_type;location;lat;lon;timestamp;temperature;humidity
17208;DHT22;8720;48.488;9.202;2023-07-13T00:02:18;23.30;50.00
17208;DHT22;8720;48.488;9.202;2023-07-13T00:04:45;23.30;50.10
17208;DHT22;8720;48.488;9.202;2023-07-13T00:07:13;23.20;50.10
17208;DHT22;8720;48.488;9.202;2023-07-13T00:09:40;23.20;50.20
17208;DHT22;8720;48.488;9.202;2023-07-13T00:12:23;23.20;50.20
17208;DHT22;8720;48.488;9.202;2023-07-13T00:14:53;23.10;50.40
17208;DHT22;8720;48.488;9.202;2023-07-13T00:17:21;23.00;50.20
17208;DHT22;8720;48.488;9.202;2023-07-13T00:19:48;23.00;50.30
17208;DHT22;8720;48.488;9.202;2023-07-13T00:22:15;22.90;50.30
17208;DHT22;8720;48.488;9.202;2023-07-13T00:24:43;22.90;50.40
17208;DHT22;8720;48.488;9.202;2023-07-13T00:27:11;22.80;50.50
17208;DHT22;8720;48.488;9.202;2023-07-13T00:29:39;22.70;50.40
17208;DHT22;8720;48.488;9.202;2023-07-13T00:32:08;22.70;50.50
17208;DHT22;8720;48.488;9.202;2023-07-13T00:34:37;22.70;50.50
17208;DHT22;8720;48.488;9.202;2023-07-13T00:37:05;22.60;50.80
17208;DHT22;8720;48.488;9.202;2023-07-13T00:39:34;22.50;50.60
17208;DHT22;8720;48.488;9.202;2023-07-13T00:42:03;22.50;50.70
17208;DHT22;8720;48.488;9.202;2023-07-13T00:44:31;22.40;50.60
17208;DHT22;8720;48.488;9.202;2023-07-13T00:46:59;22.40;50.80
17208;DHT22;8720;48.488;9.202;2023-07-13T00:49:30;22.40;50.90
17208;DHT22;8720;48.488;9.202;2023-07-13T00:52:02;22.30;50.70
17208;DHT22;8720;48.488;9.202;2023-07-13T00:54:35;22.30;51.00
17208;DHT22;8720;48.488;9.202;2023-07-13T00:57:06;22.30;51.00
17208;DHT22;8720;48.488;9.202;2023-07-13T00:59:41;22.30;51.00
17208;DHT22;8720;48.488;9.202;2023-07-13T01:02:14;22.20;51.20
17208;DHT22;8720;48.488;9.202;2023-07-13T01:04:43;22.20;51.20
17208;DHT22;8720;48.488;9.202;2023-07-13T01:07:12;22.20;51.10
17208;DHT22;8720;48.488;9.202;2023-07-13T01:09:40;22.20;51.20
17208;DHT22;8720;48.488;9.202;2023-07-13T01:12:08;22.20;51.20
17208;DHT22;8720;48.488;9.202;2023-07-13T01:14:35;22.20;51.40
17208;DHT22;8720;48.488;9.202;2023-07-13T01:17:03;22.20;51.90
17208;DHT22;8720;48.488;9.202;2023-07-13T01:19:35;22.20;51.20
17208;DHT22;8720;48.488;9.202;2023-07-13T01:22:08;22.30;51.00
17208;DHT22;8720;48.488;9.202;2023-07-13T01:24:37;22.30;50.80
17208;DHT22;8720;48.488;9.202;2023-07-13T01:27:07;22.30;50.70
17208;DHT22;8720;48.488;9.202;2023-07-13T01:29:37;22.20;50.50
17208;DHT22;8720;48.488;9.202;2023-07-13T01:32:08;22.30;50.60
17208;DHT22;8720;48.488;9.202;2023-07-13T01:34:37;22.30;50.60
17208;DHT22;8720;48.488;9.202;2023-07-13T01:37:09;22.30;50.50
17208;DHT22;8720;48.488;9.202;2023-07-13T01:39:36;22.30;50.40
17208;DHT22;8720;48.488;9.202;2023-07-13T01:42:05;22.20;50.50
17208;DHT22;8720;48.488;9.202;2023-07-13T01:44:33;22.20;50.40
17208;DHT22;8720;48.488;9.202;2023-07-13T01:47:00;22.20;50.50
17208;DHT22;8720;48.488;9.202;2023-07-13T01:49:28;22.20;50.50
17208;DHT22;8720;48.488;9.202;2023-07-13T01:51:55;22.20;50.40
17208;DHT22;8720;48.488;9.202;2023-07-13T01:54:24;22.20;50.40
17208;DHT22;8720;48.488;9.202;2023-07-13T01:56:51;22.20;50.20
17208;DHT22;8720;48.488;9.202;2023-07-13T01:59:18;22.20;50.30
17208;DHT22;8720;48.488;9.202;2023-07-13T02:04:20;22.20;50.20
17208;DHT22;8720;48.488;9.202;2023-07-13T02:06:47;22.20;50.10
17208;DHT22;8720;48.488;9.202;2023-07-13T02:09:15;22.20;50.10
17208;DHT22;8720;48.488;9.202;2023-07-13T02:11:44;22.20;50.20
17208;DHT22;8720;48.488;9.202;2023-07-13T02:14:14;22.20;50.00
17208;DHT22;8720;48.488;9.202;2023-07-13T02:16:42;22.10;49.90
17208;DHT22;8720;48.488;9.202;2023-07-13T02:19:10;22.20;50.20
17208;DHT22;8720;48.488;9.202;2023-07-13T02:21:37;22.10;50.30
17208;DHT22;8720;48.488;9.202;2023-07-13T02:24:05;22.00;50.10
17208;DHT22;8720;48.488;9.202;2023-07-13T02:26:32;22.00;50.20
17208;DHT22;8720;48.488;9.202;2023-07-13T02:29:01;21.90;50.30
17208;DHT22;8720;48.488;9.202;2023-07-13T02:31:28;21.90;50.40
17208;DHT22;8720;48.488;9.202;2023-07-13T02:33:55;21.80;50.50
17208;DHT22;8720;48.488;9.202;2023-07-13T02:36:22;21.80;50.60
17208;DHT22;8720;48.488;9.202;2023-07-13T02:38:50;21.80;50.70
17208;DHT22;8720;48.488;9.202;2023-07-13T02:41:17;21.70;50.60
17208;DHT22;8720;48.488;9.202;2023-07-13T02:43:45;21.70;50.70
17208;DHT22;8720;48.488;9.202;2023-07-13T02:46:15;21.60;50.60
17208;DHT22;8720;48.488;9.202;2023-07-13T02:48:42;21.60;50.60
17208;DHT22;8720;48.488;9.202;2023-07-13T02:51:09;21.50;50.70
17208;DHT22;8720;48.488;9.202;2023-07-13T02:53:36;21.50;50.50
17208;DHT22;8720;48.488;9.202;2023-07-13T02:56:05;21.40;50.50
17208;DHT22;8720;48.488;9.202;2023-07-13T02:58:33;21.40;50.80
17208;DHT22;8720;48.488;9.202;2023-07-13T03:01:06;21.30;50.80
17208;DHT22;8720;48.488;9.202;2023-07-13T03:03:36;21.30;50.90
17208;DHT22;8720;48.488;9.202;2023-07-13T03:06:05;21.20;50.90
17208;DHT22;8720;48.488;9.202;2023-07-13T03:08:41;21.10;51.10
17208;DHT22;8720;48.488;9.202;2023-07-13T03:11:12;21.10;51.40
17208;DHT22;8720;48.488;9.202;2023-07-13T03:13:42;21.00;51.50
17208;DHT22;8720;48.488;9.202;2023-07-13T03:16:11;20.90;51.60
17208;DHT22;8720;48.488;9.202;2023-07-13T03:18:42;20.90;51.50
17208;DHT22;8720;48.488;9.202;2023-07-13T03:21:11;20.80;51.70
17208;DHT22;8720;48.488;9.202;2023-07-13T03:23:39;20.80;52.20
17208;DHT22;8720;48.488;9.202;2023-07-13T03:26:08;20.70;51.40
17208;DHT22;8720;48.488;9.202;2023-07-13T03:28:39;20.70;51.50
17208;DHT22;8720;48.488;9.202;2023-07-13T03:31:14;20.60;51.60
17208;DHT22;8720;48.488;9.202;2023-07-13T03:33:45;20.60;51.80
17208;DHT22;8720;48.488;9.202;2023-07-13T03:36:17;20.50;52.00
17208;DHT22;8720;48.488;9.202;2023-07-13T03:38:47;20.50;52.90
17208;DHT22;8720;48.488;9.202;2023-07-13T03:41:17;20.50;52.10
17208;DHT22;8720;48.488;9.202;2023-07-13T03:43:47;20.50;52.10
17208;DHT22;8720;48.488;9.202;2023-07-13T03:46:16;20.40;52.50
17208;DHT22;8720;48.488;9.202;2023-07-13T03:48:46;20.40;52.60
17208;DHT22;8720;48.488;9.202;2023-07-13T03:51:16;20.40;52.80
17208;DHT22;8720;48.488;9.202;2023-07-13T03:53:45;20.30;52.70
17208;DHT22;8720;48.488;9.202;2023-07-13T03:56:16;20.30;52.90
17208;DHT22;8720;48.488;9.202;2023-07-13T03:58:46;20.30;53.00
17208;DHT22;8720;48.488;9.202;2023-07-13T04:01:19;20.30;53.10
17208;DHT22;8720;48.488;9.202;2023-07-13T04:03:49;20.30;53.10
17208;DHT22;8720;48.488;9.202;2023-07-13T04:06:19;20.30;53.10
17208;DHT22;8720;48.488;9.202;2023-07-13T04:08:52;20.30;53.40
17208;DHT22;8720;48.488;9.202;2023-07-13T04:11:23;20.30;53.40
17208;DHT22;8720;48.488;9.202;2023-07-13T04:13:51;20.30;53.40
17208;DHT22;8720;48.488;9.202;2023-07-13T04:16:19;20.30;53.50
17208;DHT22;8720;48.488;9.202;2023-07-13T04:18:49;20.30;53.60
17208;DHT22;8720;48.488;9.202;2023-07-13T04:21:20;20.30;53.50
17208;DHT22;8720;48.488;9.202;2023-07-13T04:23:48;20.30;53.40
17208;DHT22;8720;48.488;9.202;2023-07-13T04:26:15;20.30;53.30
17208;DHT22;8720;48.488;9.202;2023-07-13T04:28:43;20.30;53.30
17208;DHT22;8720;48.488;9.202;2023-07-13T04:31:10;20.40;53.40
17208;DHT22;8720;48.488;9.202;2023-07-13T04:33:37;20.40;53.60
17208;DHT22;8720;48.488;9.202;2023-07-13T04:36:06;20.40;53.80
17208;DHT22;8720;48.488;9.202;2023-07-13T04:38:35;20.40;54.00
17208;DHT22;8720;48.488;9.202;2023-07-13T04:41:05;20.40;54.10
17208;DHT22;8720;48.488;9.202;2023-07-13T04:43:34;20.40;54.50
17208;DHT22;8720;48.488;9.202;2023-07-13T04:46:06;20.30;55.50
17208;DHT22;8720;48.488;9.202;2023-07-13T04:48:35;20.30;55.40
17208;DHT22;8720;48.488;9.202;2023-07-13T04:51:03;20.40;55.50
17208;DHT22;8720;48.488;9.202;2023-07-13T04:53:32;20.40;55.40
17208;DHT22;8720;48.488;9.202;2023-07-13T04:56:00;20.50;55.30
17208;DHT22;8720;48.488;9.202;2023-07-13T04:58:28;20.50;55.10
17208;DHT22;8720;48.488;9.202;2023-07-13T05:00:59;20.50;54.90
17208;DHT22;8720;48.488;9.202;2023-07-13T05:03:28;20.60;54.70
17208;DHT22;8720;48.488;9.202;2023-07-13T05:05:57;20.60;54.80
17208;DHT22;8720;48.488;9.202;2023-07-13T05:08:26;20.60;54.90
17208;DHT22;8720;48.488;9.202;2023-07-13T05:10:55;20.60;54.80
17208;DHT22;8720;48.488;9.202;2023-07-13T05:13:22;20.70;54.80
17208;DHT22;8720;48.488;9.202;2023-07-13T05:15:56;20.70;54.80
17208;DHT22;8720;48.488;9.202;2023-07-13T05:18:25;20.70;54.70
17208;DHT22;8720;48.488;9.202;2023-07-13T05:20:57;20.80;54.90
17208;DHT22;8720;48.488;9.202;2023-07-13T05:23:26;20.80;54.70
17208;DHT22;8720;48.488;9.202;2023-07-13T05:25:55;20.80;54.70
17208;DHT22;8720;48.488;9.202;2023-07-13T05:28:23;20.90;54.60
17208;DHT22;8720;48.488;9.202;2023-07-13T05:30:51;20.90;54.50
17208;DHT22;8720;48.488;9.202;2023-07-13T05:33:20;21.00;54.60
17208;DHT22;8720;48.488;9.202;2023-07-13T05:35:47;21.00;54.40
17208;DHT22;8720;48.488;9.202;2023-07-13T05:38:14;21.00;54.30
17208;DHT22;8720;48.488;9.202;2023-07-13T05:40:42;21.00;54.40
17208;DHT22;8720;48.488;9.202;2023-07-13T05:43:12;21.10;54.20
17208;DHT22;8720;48.488;9.202;2023-07-13T05:45:40;21.20;55.10
17208;DHT22;8720;48.488;9.202;2023-07-13T05:48:08;21.40;54.70
17208;DHT22;8720;48.488;9.202;2023-07-13T05:50:35;21.60;54.90
17208;DHT22;8720;48.488;9.202;2023-07-13T05:53:03;21.70;53.80
17208;DHT22;8720;48.488;9.202;2023-07-13T05:55:30;21.90;53.70
17208;DHT22;8720;48.488;9.202;2023-07-13T05:57:58;22.00;53.50
17208;DHT22;8720;48.488;9.202;2023-07-13T06:00:27;22.20;53.90
17208;DHT22;8720;48.488;9.202;2023-07-13T06:02:56;22.50;54.30
17208;DHT22;8720;48.488;9.202;2023-07-13T06:05:24;23.00;54.20
17208;DHT22;8720;48.488;9.202;2023-07-13T06:07:52;23.50;53.70
17208;DHT22;8720;48.488;9.202;2023-07-13T06:10:20;23.90;52.80
17208;DHT22;8720;48.488;9.202;2023-07-13T06:12:47;24.30;51.90
17208;DHT22;8720;48.488;9.202;2023-07-13T06:15:14;24.50;51.20
17208;DHT22;8720;48.488;9.202;2023-07-13T06:17:43;24.70;50.50
17208;DHT22;8720;48.488;9.202;2023-07-13T06:20:11;25.00;50.00
17208;DHT22;8720;48.488;9.202;2023-07-13T06:22:38;25.20;49.90
17208;DHT22;8720;48.488;9.202;2023-07-13T06:25:06;25.50;49.90
17208;DHT22;8720;48.488;9.202;2023-07-13T06:27:34;25.80;49.30
17208;DHT22;8720;48.488;9.202;2023-07-13T06:30:01;26.30;49.00
17208;DHT22;8720;48.488;9.202;2023-07-13T06:32:29;26.80;48.80
17208;DHT22;8720;48.488;9.202;2023-07-13T06:34:57;27.30;48.40
17208;DHT22;8720;48.488;9.202;2023-07-13T06:37:25;27.80;47.00
17208;DHT22;8720;48.488;9.202;2023-07-13T06:39:52;28.40;46.80
17208;DHT22;8720;48.488;9.202;2023-07-13T06:42:19;29.00;46.20
17208;DHT22;8720;48.488;9.202;2023-07-13T06:44:47;29.60;45.20
17208;DHT22;8720;48.488;9.202;2023-07-13T06:47:14;30.10;44.20
17208;DHT22;8720;48.488;9.202;2023-07-13T06:49:42;30.60;43.40
17208;DHT22;8720;48.488;9.202;2023-07-13T06:52:10;31.20;42.40
17208;DHT22;8720;48.488;9.202;2023-07-13T06:54:38;31.60;40.80
17208;DHT22;8720;48.488;9.202;2023-07-13T06:57:05;32.00;40.20
17208;DHT22;8720;48.488;9.202;2023-07-13T06:59:33;32.40;39.20
17208;DHT22;8720;48.488;9.202;2023-07-13T07:02:00;32.70;38.40
17208;DHT22;8720;48.488;9.202;2023-07-13T07:04:27;33.00;37.40
17208;DHT22;8720;48.488;9.202;2023-07-13T07:06:55;33.30;36.40
17208;DHT22;8720;48.488;9.202;2023-07-13T07:09:24;33.40;36.00
17208;DHT22;8720;48.488;9.202;2023-07-13T07:11:55;33.50;35.90
17208;DHT22;8720;48.488;9.202;2023-07-13T07:14:23;33.60;35.70
17208;DHT22;8720;48.488;9.202;2023-07-13T07:16:50;33.80;35.20
17208;DHT22;8720;48.488;9.202;2023-07-13T07:19:17;33.80;34.40
17208;DHT22;8720;48.488;9.202;2023-07-13T07:21:46;33.80;34.00
17208;DHT22;8720;48.488;9.202;2023-07-13T07:24:13;33.80;33.60
17208;DHT22;8720;48.488;9.202;2023-07-13T07:26:42;33.70;33.70
17208;DHT22;8720;48.488;9.202;2023-07-13T07:29:10;33.70;33.20
17208;DHT22;8720;48.488;9.202;2023-07-13T07:31:37;33.70;33.10
17208;DHT22;8720;48.488;9.202;2023-07-13T07:34:05;33.70;32.90
17208;DHT22;8720;48.488;9.202;2023-07-13T07:36:32;33.70;32.90
17208;DHT22;8720;48.488;9.202;2023-07-13T07:38:59;33.70;32.50
17208;DHT22;8720;48.488;9.202;2023-07-13T07:41:27;33.70;31.70
17208;DHT22;8720;48.488;9.202;2023-07-13T07:43:56;33.70;31.60
17208;DHT22;8720;48.488;9.202;2023-07-13T07:46:23;33.50;31.10
17208;DHT22;8720;48.488;9.202;2023-07-13T07:48:50;33.50;31.50
17208;DHT22;8720;48.488;9.202;2023-07-13T07:51:18;33.40;31.10
17208;DHT22;8720;48.488;9.202;2023-07-13T07:53:45;33.30;31.70
17208;DHT22;8720;48.488;9.202;2023-07-13T07:56:12;33.20;30.90
17208;DHT22;8720;48.488;9.202;2023-07-13T07:58:42;33.10;30.40
17208;DHT22;8720;48.488;9.202;2023-07-13T08:01:11;32.90;30.50
17208;DHT22;8720;48.488;9.202;2023-07-13T08:03:39;32.80;30.40
17208;DHT22;8720;48.488;9.202;2023-07-13T08:06:06;32.60;30.50
17208;DHT22;8720;48.488;9.202;2023-07-13T08:08:34;32.50;30.50
17208;DHT22;8720;48.488;9.202;2023-07-13T08:11:03;32.30;30.50
17208;DHT22;8720;48.488;9.202;2023-07-13T08:13:31;32.20;30.30
17208;DHT22;8720;48.488;9.202;2023-07-13T08:16:00;32.10;30.50
17208;DHT22;8720;48.488;9.202;2023-07-13T08:18:32;32.00;30.00
17208;DHT22;8720;48.488;9.202;2023-07-13T08:21:03;31.90;30.40
17208;DHT22;8720;48.488;9.202;2023-07-13T08:23:32;31.90;30.20
17208;DHT22;8720;48.488;9.202;2023-07-13T08:25:59;31.90;30.70
17208;DHT22;8720;48.488;9.202;2023-07-13T08:28:27;32.00;30.60
17208;DHT22;8720;48.488;9.202;2023-07-13T08:30:55;32.00;30.60
17208;DHT22;8720;48.488;9.202;2023-07-13T08:33:27;32.00;30.60
17208;DHT22;8720;48.488;9.202;2023-07-13T08:35:56;32.10;30.80
17208;DHT22;8720;48.488;9.202;2023-07-13T08:38:23;32.10;30.40
17208;DHT22;8720;48.488;9.202;2023-07-13T08:40:53;32.20;30.70
17208;DHT22;8720;48.488;9.202;2023-07-13T08:43:26;32.30;30.20
17208;DHT22;8720;48.488;9.202;2023-07-13T08:46:02;32.40;29.80
17208;DHT22;8720;48.488;9.202;2023-07-13T08:48:38;32.50;29.60
17208;DHT22;8720;48.488;9.202;2023-07-13T08:51:28;32.60;29.60
17208;DHT22;8720;48.488;9.202;2023-07-13T08:54:05;32.60;29.30
17208;DHT22;8720;48.488;9.202;2023-07-13T08:56:39;32.70;29.90
17208;DHT22;8720;48.488;9.202;2023-07-13T08:59:11;32.80;30.00
17208;DHT22;8720;48.488;9.202;2023-07-13T09:02:24;32.80;29.30
17208;DHT22;8720;48.488;9.202;2023-07-13T09:05:00;32.90;29.10
17208;DHT22;8720;48.488;9.202;2023-07-13T09:07:43;33.00;28.90
17208;DHT22;8720;48.488;9.202;2023-07-13T09:10:28;33.00;28.20
17208;DHT22;8720;48.488;9.202;2023-07-13T09:13:07;32.90;28.30
17208;DHT22;8720;48.488;9.202;2023-07-13T09:15:48;32.80;28.50
17208;DHT22;8720;48.488;9.202;2023-07-13T09:18:21;32.60;29.00
17208;DHT22;8720;48.488;9.202;2023-07-13T09:20:57;32.50;28.50
17208;DHT22;8720;48.488;9.202;2023-07-13T09:23:29;32.40;28.70
17208;DHT22;8720;48.488;9.202;2023-07-13T09:26:02;32.20;28.40
17208;DHT22;8720;48.488;9.202;2023-07-13T09:28:39;32.10;28.40
17208;DHT22;8720;48.488;9.202;2023-07-13T09:31:14;32.00;28.20
17208;DHT22;8720;48.488;9.202;2023-07-13T09:33:44;31.80;28.20
17208;DHT22;8720;48.488;9.202;2023-07-13T09:36:19;31.70;28.80
17208;DHT22;8720;48.488;9.202;2023-07-13T09:38:57;31.60;28.00
17208;DHT22;8720;48.488;9.202;2023-07-13T09:41:37;31.50;28.50
17208;DHT22;8720;48.488;9.202;2023-07-13T09:44:12;31.40;28.50
17208;DHT22;8720;48.488;9.202;2023-07-13T09:46:44;31.30;28.80
17208;DHT22;8720;48.488;9.202;2023-07-13T09:49:13;31.20;28.70
17208;DHT22;8720;48.488;9.202;2023-07-13T09:51:41;31.20;29.20
17208;DHT22;8720;48.488;9.202;2023-07-13T09:54:20;31.20;29.20
17208;DHT22;8720;48.488;9.202;2023-07-13T09:56:54;31.20;28.50
17208;DHT22;8720;48.488;9.202;2023-07-13T09:59:31;31.20;28.60
17208;DHT22;8720;48.488;9.202;2023-07-13T10:02:00;31.20;28.90
17208;DHT22;8720;48.488;9.202;2023-07-13T10:04:31;31.10;28.80
17208;DHT22;8720;48.488;9.202;2023-07-13T10:07:07;31.00;28.30
17208;DHT22;8720;48.488;9.202;2023-07-13T10:09:36;30.80;28.30
17208;DHT22;8720;48.488;9.202;2023-07-13T10:12:05;30.70;28.50
17208;DHT22;8720;48.488;9.202;2023-07-13T10:14:41;30.60;28.70
17208;DHT22;8720;48.488;9.202;2023-07-13T10:17:13;30.50;28.80
17208;DHT22;8720;48.488;9.202;2023-07-13T10:19:42;30.50;28.60
17208;DHT22;8720;48.488;9.202;2023-07-13T10:22:18;30.50;28.50
17208;DHT22;8720;48.488;9.202;2023-07-13T10:24:52;30.20;26.80
17208;DHT22;8720;48.488;9.202;2023-07-13T10:27:28;30.10;27.90
17208;DHT22;8720;48.488;9.202;2023-07-13T10:30:04;30.00;28.00
17208;DHT22;8720;48.488;9.202;2023-07-13T10:32:39;29.90;28.30
17208;DHT22;8720;48.488;9.202;2023-07-13T10:35:10;29.80;28.30
17208;DHT22;8720;48.488;9.202;2023-07-13T10:37:47;29.70;28.10
17208;DHT22;8720;48.488;9.202;2023-07-13T10:40:25;29.70;28.10
17208;DHT22;8720;48.488;9.202;2023-07-13T10:42:57;29.60;28.20
17208;DHT22;8720;48.488;9.202;2023-07-13T10:45:31;29.50;28.10
17208;DHT22;8720;48.488;9.202;2023-07-13T10:48:02;29.50;28.60
17208;DHT22;8720;48.488;9.202;2023-07-13T10:50:32;29.40;28.70
17208;DHT22;8720;48.488;9.202;2023-07-13T10:53:19;29.40;28.70
17208;DHT22;8720;48.488;9.202;2023-07-13T10:55:59;29.40;28.40
17208;DHT22;8720;48.488;9.202;2023-07-13T10:58:33;29.40;28.60
17208;DHT22;8720;48.488;9.202;2023-07-13T11:01:09;29.40;28.70
17208;DHT22;8720;48.488;9.202;2023-07-13T11:03:47;29.40;28.60
17208;DHT22;8720;48.488;9.202;2023-07-13T11:06:28;29.40;28.50
17208;DHT22;8720;48.488;9.202;2023-07-13T11:09:18;29.40;29.00
17208;DHT22;8720;48.488;9.202;2023-07-13T11:12:26;29.50;28.20
17208;DHT22;8720;48.488;9.202;2023-07-13T11:15:06;29.50;28.10
17208;DHT22;8720;48.488;9.202;2023-07-13T11:17:48;29.50;27.90
17208;DHT22;8720;48.488;9.202;2023-07-13T11:23:30;29.50;28.80
17208;DHT22;8720;48.488;9.202;2023-07-13T11:25:59;29.50;28.50
17208;DHT22;8720;48.488;9.202;2023-07-13T11:28:31;29.40;28.90
17208;DHT22;8720;48.488;9.202;2023-07-13T11:31:13;29.40;28.80
17208;DHT22;8720;48.488;9.202;2023-07-13T11:33:53;29.40;28.20
17208;DHT22;8720;48.488;9.202;2023-07-13T11:36:36;29.40;28.20
17208;DHT22;8720;48.488;9.202;2023-07-13T11:39:16;29.40;28.40
17208;DHT22;8720;48.488;9.202;2023-07-13T11:41:50;29.30;28.30
17208;DHT22;8720;48.488;9.202;2023-07-13T11:44:23;29.30;28.50
17208;DHT22;8720;48.488;9.202;2023-07-13T11:46:54;29.30;28.50
17208;DHT22;8720;48.488;9.202;2023-07-13T11:49:29;29.30;28.70
17208;DHT22;8720;48.488;9.202;2023-07-13T11:51:58;29.30;28.80
17208;DHT22;8720;48.488;9.202;2023-07-13T11:54:30;29.30;29.20
17208;DHT22;8720;48.488;9.202;2023-07-13T11:57:06;29.40;28.50
17208;DHT22;8720;48.488;9.202;2023-07-13T11:59:50;29.40;28.60
17208;DHT22;8720;48.488;9.202;2023-07-13T12:02:32;29.40;28.50
17208;DHT22;8720;48.488;9.202;2023-07-13T12:05:04;29.50;28.10
17208;DHT22;8720;48.488;9.202;2023-07-13T12:07:33;29.50;28.70
17208;DHT22;8720;48.488;9.202;2023-07-13T12:10:01;29.50;28.40
17208;DHT22;8720;48.488;9.202;2023-07-13T12:12:30;29.60;28.50
17208;DHT22;8720;48.488;9.202;2023-07-13T12:14:59;29.60;28.30
17208;DHT22;8720;48.488;9.202;2023-07-13T12:17:27;29.60;28.30
17208;DHT22;8720;48.488;9.202;2023-07-13T12:19:56;29.70;28.40
17208;DHT22;8720;48.488;9.202;2023-07-13T12:22:23;29.70;27.70
17208;DHT22;8720;48.488;9.202;2023-07-13T12:24:52;29.70;27.90
17208;DHT22;8720;48.488;9.202;2023-07-13T12:27:21;29.70;27.80
17208;DHT22;8720;48.488;9.202;2023-07-13T12:29:52;29.70;28.00
17208;DHT22;8720;48.488;9.202;2023-07-13T12:32:27;29.70;27.90
17208;DHT22;8720;48.488;9.202;2023-07-13T12:35:01;29.60;27.70
17208;DHT22;8720;48.488;9.202;2023-07-13T12:37:35;29.60;28.00
17208;DHT22;8720;48.488;9.202;2023-07-13T12:40:04;29.50;27.80
17208;DHT22;8720;48.488;9.202;2023-07-13T12:42:38;29.40;27.60
17208;DHT22;8720;48.488;9.202;2023-07-13T12:45:16;29.30;27.30
17208;DHT22;8720;48.488;9.202;2023-07-13T12:47:52;29.30;27.60
17208;DHT22;8720;48.488;9.202;2023-07-13T12:50:23;29.20;27.90
17208;DHT22;8720;48.488;9.202;2023-07-13T12:53:01;29.20;27.90
17208;DHT22;8720;48.488;9.202;2023-07-13T12:55:41;29.20;27.40
17208;DHT22;8720;48.488;9.202;2023-07-13T12:58:16;29.30;27.70
17208;DHT22;8720;48.488;9.202;2023-07-13T13:00:49;29.30;28.00
17208;DHT22;8720;48.488;9.202;2023-07-13T13:03:26;29.40;27.70
17208;DHT22;8720;48.488;9.202;2023-07-13T13:06:00;29.40;27.10
17208;DHT22;8720;48.488;9.202;2023-07-13T13:08:30;29.40;27.40
17208;DHT22;8720;48.488;9.202;2023-07-13T13:10:58;29.40;27.20
17208;DHT22;8720;48.488;9.202;2023-07-13T13:13:25;29.30;27.00
17208;DHT22;8720;48.488;9.202;2023-07-13T13:15:53;29.30;27.00
17208;DHT22;8720;48.488;9.202;2023-07-13T13:18:23;29.30;26.80
17208;DHT22;8720;48.488;9.202;2023-07-13T13:20:51;29.30;27.00
17208;DHT22;8720;48.488;9.202;2023-07-13T13:23:20;29.20;27.40
17208;DHT22;8720;48.488;9.202;2023-07-13T13:25:50;29.20;27.00
17208;DHT22;8720;48.488;9.202;2023-07-13T13:28:19;29.20;27.30
17208;DHT22;8720;48.488;9.202;2023-07-13T13:30:50;29.10;26.90
17208;DHT22;8720;48.488;9.202;2023-07-13T13:33:19;29.10;26.90
17208;DHT22;8720;48.488;9.202;2023-07-13T13:35:50;29.10;27.00
17208;DHT22;8720;48.488;9.202;2023-07-13T13:38:20;29.10;26.90
17208;DHT22;8720;48.488;9.202;2023-07-13T13:40:52;29.10;26.70
17208;DHT22;8720;48.488;9.202;2023-07-13T13:43:22;29.20;27.30
17208;DHT22;8720;48.488;9.202;2023-07-13T13:45:54;29.20;26.80
17208;DHT22;8720;48.488;9.202;2023-07-13T13:48:30;29.30;26.90
17208;DHT22;8720;48.488;9.202;2023-07-13T13:51:01;29.40;26.60
17208;DHT22;8720;48.488;9.202;2023-07-13T13:53:40;29.40;26.70
17208;DHT22;8720;48.488;9.202;2023-07-13T13:56:08;29.50;26.80
17208;DHT22;8720;48.488;9.202;2023-07-13T13:58:35;29.50;26.60
17208;DHT22;8720;48.488;9.202;2023-07-13T14:01:03;29.50;26.60
17208;DHT22;8720;48.488;9.202;2023-07-13T14:03:34;29.50;26.50
17208;DHT22;8720;48.488;9.202;2023-07-13T14:06:03;29.40;26.40
17208;DHT22;8720;48.488;9.202;2023-07-13T14:08:30;29.40;26.60
17208;DHT22;8720;48.488;9.202;2023-07-13T14:10:58;29.40;26.60
17208;DHT22;8720;48.488;9.202;2023-07-13T14:13:28;29.40;26.80
17208;DHT22;8720;48.488;9.202;2023-07-13T14:16:01;29.40;26.70
17208;DHT22;8720;48.488;9.202;2023-07-13T14:18:30;29.40;26.80
17208;DHT22;8720;48.488;9.202;2023-07-13T14:20:57;29.40;26.70
17208;DHT22;8720;48.488;9.202;2023-07-13T14:23:29;29.50;26.90
17208;DHT22;8720;48.488;9.202;2023-07-13T14:25:56;29.50;26.60
17208;DHT22;8720;48.488;9.202;2023-07-13T14:28:25;29.50;26.50
17208;DHT22;8720;48.488;9.202;2023-07-13T14:30:54;29.60;26.20
17208;DHT22;8720;48.488;9.202;2023-07-13T14:33:21;29.60;26.40
17208;DHT22;8720;48.488;9.202;2023-07-13T14:35:49;29.50;26.30
17208;DHT22;8720;48.488;9.202;2023-07-13T14:38:20;29.50;26.00
17208;DHT22;8720;48.488;9.202;2023-07-13T14:40:49;29.50;26.10
17208;DHT22;8720;48.488;9.202;2023-07-13T14:43:17;29.50;26.30
17208;DHT22;8720;48.488;9.202;2023-07-13T14:45:47;29.50;26.10
17208;DHT22;8720;48.488;9.202;2023-07-13T14:48:18;29.50;25.90
17208;DHT22;8720;48.488;9.202;2023-07-13T14:50:51;29.40;25.80
17208;DHT22;8720;48.488;9.202;2023-07-13T14:53:22;29.40;26.00
17208;DHT22;8720;48.488;9.202;2023-07-13T14:55:54;29.40;26.00
17208;DHT22;8720;48.488;9.202;2023-07-13T14:58:21;29.40;26.10
17208;DHT22;8720;48.488;9.202;2023-07-13T15:00:48;29.50;26.30
17208;DHT22;8720;48.488;9.202;2023-07-13T15:03:23;29.40;26.10
17208;DHT22;8720;48.488;9.202;2023-07-13T15:05:52;29.50;26.00
17208;DHT22;8720;48.488;9.202;2023-07-13T15:08:20;29.50;26.00
17208;DHT22;8720;48.488;9.202;2023-07-13T15:10:48;29.50;26.10
17208;DHT22;8720;48.488;9.202;2023-07-13T15:13:18;29.50;26.00
17208;DHT22;8720;48.488;9.202;2023-07-13T15:15:48;29.50;25.30
17208;DHT22;8720;48.488;9.202;2023-07-13T15:18:23;29.50;25.60
17208;DHT22;8720;48.488;9.202;2023-07-13T15:20:56;29.50;25.70
17208;DHT22;8720;48.488;9.202;2023-07-13T15:23:28;29.50;25.90
17208;DHT22;8720;48.488;9.202;2023-07-13T15:25:55;29.50;25.80
17208;DHT22;8720;48.488;9.202;2023-07-13T15:28:24;29.60;25.80
17208;DHT22;8720;48.488;9.202;2023-07-13T15:30:51;29.60;26.30
17208;DHT22;8720;48.488;9.202;2023-07-13T15:33:23;29.50;25.60
17208;DHT22;8720;48.488;9.202;2023-07-13T15:35:53;29.50;26.00
17208;DHT22;8720;48.488;9.202;2023-07-13T15:38:23;29.40;25.60
17208;DHT22;8720;48.488;9.202;2023-07-13T15:40:52;29.40;26.20
17208;DHT22;8720;48.488;9.202;2023-07-13T15:43:20;29.30;25.90
17208;DHT22;8720;48.488;9.202;2023-07-13T15:45:49;29.20;26.00
17208;DHT22;8720;48.488;9.202;2023-07-13T15:48:19;29.20;26.10
17208;DHT22;8720;48.488;9.202;2023-07-13T15:50:51;29.20;26.20
17208;DHT22;8720;48.488;9.202;2023-07-13T15:53:21;29.30;26.30
17208;DHT22;8720;48.488;9.202;2023-07-13T15:55:51;29.30;26.40
17208;DHT22;8720;48.488;9.202;2023-07-13T15:58:19;29.30;26.60
17208;DHT22;8720;48.488;9.202;2023-07-13T16:00:46;29.30;26.60
17208;DHT22;8720;48.488;9.202;2023-07-13T16:03:17;29.30;26.70
17208;DHT22;8720;48.488;9.202;2023-07-13T16:05:45;29.30;26.70
17208;DHT22;8720;48.488;9.202;2023-07-13T16:08:23;29.20;26.60
17208;DHT22;8720;48.488;9.202;2023-07-13T16:10:52;29.20;26.50
17208;DHT22;8720;48.488;9.202;2023-07-13T16:13:21;29.10;26.60